This is the latest recevied weather packets stored in our database for station/object E27EKO-13. If no packets are shown the sender has not sent any weather packets the latest 10 day(s).
| Time | Temp. | Humidity | Pressure | Rain* | Wind** | Luminosity | Snow |
|---|---|---|---|---|---|---|---|
| 1777342467 | 39.44° C | 55% | 1009 hPa | - | - | 0 W/m² | - |
| 1777342145 | 39.44° C | 55% | 1009 hPa | - | - | 0 W/m² | - |
| 1777341823 | 38.89° C | 56% | 1009 hPa | - | - | 0 W/m² | - |
| 1777341501 | 38.89° C | 55% | 1009 hPa | - | - | 0 W/m² | - |
| 1777341179 | 39.44° C | 54% | 1009 hPa | - | - | 0 W/m² | - |
| 1777340857 | 39.44° C | 54% | 1009 hPa | - | - | 0 W/m² | - |
| 1777340535 | 40° C | 52% | 1009 hPa | - | - | 0 W/m² | - |
| 1777340213 | 41.11° C | 49% | 1009 hPa | - | - | 0 W/m² | - |
| 1777339891 | 41.67° C | 48% | 1009 hPa | - | - | 0 W/m² | - |
| 1777339569 | 43.89° C | 44% | 1009 hPa | - | - | 0 W/m² | - |
| 1777339247 | 47.22° C | 39% | 1009 hPa | - | - | 0 W/m² | - |
| 1777339098 | 48.33° C | 38% | 1009 hPa | - | - | 0 W/m² | - |
| 1777338776 | 48.33° C | 38% | 1009 hPa | - | - | 0 W/m² | - |
| 1777338454 | 47.78° C | 39% | 1009 hPa | - | - | 0 W/m² | - |
| 1777338132 | 47.22° C | 40% | 1009 hPa | - | - | 0 W/m² | - |
| 1777337810 | 46.67° C | 41% | 1009 hPa | - | - | 0 W/m² | - |
| 1777337488 | 45.56° C | 42% | 1009 hPa | - | - | 0 W/m² | - |
| 1777337166 | 45.56° C | 44% | 1008 hPa | - | - | 0 W/m² | - |
| 1777336845 | 43.89° C | 45% | 1008 hPa | - | - | 0 W/m² | - |
| 1777336523 | 43.33° C | 47% | 1008 hPa | - | - | 0 W/m² | - |
| 1777336201 | 43.33° C | 48% | 1008 hPa | - | - | 0 W/m² | - |
| 1777335879 | 42.22° C | 50% | 1008 hPa | - | - | 0 W/m² | - |
| 1777335557 | 41.67° C | 51% | 1008 hPa | - | - | 0 W/m² | - |
| 1777335235 | 41.11° C | 53% | 1008 hPa | - | - | 0 W/m² | - |
| 1777334857 | 40° C | 56% | 1008 hPa | - | - | 0 W/m² | - |
* Rain since midnight (hover to see other rain measurements)
** Current wind speed in m/s (hover to see current wind gust speed)